KCIC/CIC METAR and TAF weather

Enter ICAO airport designator
Station Type Date Time Source
KCIC METAR 2021/01/16 00:55 UTC NOAA

KCIC 160055Z 33005KT 10SM BKN160 15/09 A3029


Station Type Date Time Source
KCIC Decoded METAR 2021/01/16 00:55 UTC NOAA

Chico Municipal , CA, United States (KCIC) 39-48N 121-51W
Jan 15, 2021 - 07:55 PM EST / 2021.01.16 0055 UTC
Wind: from the NNW (330 degrees) at 6 MPH (5 KT):0
Visibility: 10 mile(s):0
Sky conditions: mostly cloudy
Temperature: 59 F (15 C)
Dew Point: 48 F (9 C)
Relative Humidity: 67%
Pressure (altimeter): 30.29 in. Hg (1025 hPa)
ob: KCIC 160055Z 33005KT 10SM BKN160 15/09 A3029
cycle: 1

Station Type Date Time Source
KCIC TAF UTC NOAA

Error!

Example: see airport list